Time;durP1;ratioP1;P1;durP2;ratioP2;P2;SDS_P1;SDS_P2;PMS_P1;PMS_P2;Temp;Humidity;BMP_temperature;BMP_pressure;BME280_temperature;BME280_humidity;BME280_pressure;Samples;Min_cycle;Max_cycle;Signal;HPM_P1;HPM_P2
2023/08/24 00:01:29;;;;;;;;;;;;;;;;;;4917702;29;19997;-93
2023/08/24 00:03:55;;;;;;;;;;;;;;;;;;4911011;29;19969;-94
2023/08/24 00:06:21;;;;;;;;;;;;;;;;;;4912017;29;20144;-93
2023/08/24 00:08:48;;;;;;;;;;;;;;;;;;4916688;29;19982;-93
2023/08/24 00:11:17;;;;;;;;;;;;;;;;;;4917020;29;19915;-93
2023/08/24 00:13:48;;;;;;;;;;;;;;;;;;4913386;29;19971;-93
2023/08/24 00:16:15;;;;;;;;;;;;;;;;;;4913932;29;19915;-92
2023/08/24 00:18:42;;;;;;;;;;;;;;;;;;4915210;29;19911;-94
2023/08/24 00:21:11;;;;;;;;;;;;;;;;;;4928758;29;19915;-93
2023/08/24 00:23:38;;;;;;;;;;;;;;;;;;4912558;29;20354;-92
2023/08/24 00:26:04;;;;;;;;;;;;;;;;;;4915681;29;19921;-93
2023/08/24 00:28:30;;;;;;;;;;;;;;;;;;4916763;29;20015;-92
2023/08/24 00:30:56;;;;;;;;;;;;;;;;;;4916975;29;20438;-92
2023/08/24 00:33:22;;;;;;;;;;;;;;;;;;4912575;29;19917;-92
2023/08/24 00:35:48;;;;;;;;;;;;;;;;;;4932420;29;19923;-93
2023/08/24 00:38:14;;;;;;;;;;;;;;;;;;4931601;29;19907;-93
2023/08/24 00:40:40;;;;;;;;;;;;;;;;;;4918151;29;19918;-93
2023/08/24 00:43:06;;;;;;;;;;;;;;;;;;4918636;29;20379;-91
2023/08/24 00:45:36;;;;;;;;;;;;;;;;;;4920116;29;19933;-93
2023/08/24 00:48:01;;;;;;;;;;;;;;;;;;4919089;29;19970;-93
2023/08/24 00:50:27;;;;;;;;;;;;;;;;;;4911840;29;19911;-93
2023/08/24 00:52:53;;;;;;;;;;;;;;;;;;4929121;28;19921;-93
2023/08/24 00:55:19;;;;;;;;;;;;;;;;;;4938216;29;20314;-93
2023/08/24 00:57:45;;;;;;;;;;;;;;;;;;4939103;29;19914;-93
2023/08/24 01:00:11;;;;;;;;;;;;;;;;;;4933611;29;20049;-92
2023/08/24 01:02:37;;;;;;;;;;;;;;;;;;4938458;29;19926;-92
2023/08/24 01:05:06;;;;;;;;;;;;;;;;;;4935571;29;20396;-93
2023/08/24 01:07:32;;;;;;;;;;;;;;;;;;4931835;28;19942;-93
2023/08/24 01:10:06;;;;;;;;;;;;;;;;;;4952194;28;19941;-92
2023/08/24 01:12:32;;;;;;;;;;;;;;;;;;4946635;28;19914;-92
2023/08/24 01:14:58;;;;;;;;;;;;;;;;;;4931997;29;19958;-93
2023/08/24 01:17:28;;;;;;;;;;;;;;;;;;4935439;28;19922;-93
2023/08/24 01:19:54;;;;;;;;;;;;;;;;;;4933561;28;20371;-93
2023/08/24 01:22:20;;;;;;;;;;;;;;;;;;4932759;28;19918;-94
2023/08/24 01:24:47;;;;;;;;;;;;;;;;;;4936781;29;19926;-94
2023/08/24 01:27:14;;;;;;;;;;;;;;;;;;4930381;28;20009;-93
2023/08/24 01:29:40;;;;;;;;;;;;;;;;;;4939740;29;19917;-93
2023/08/24 01:32:06;;;;;;;;;;;;;;;;;;4939752;29;19918;-93
2023/08/24 01:34:32;;;;;;;;;;;;;;;;;;4940489;29;19926;-94
2023/08/24 01:36:58;;;;;;;;;;;;;;;;;;4937582;28;19910;-93
2023/08/24 01:39:24;;;;;;;;;;;;;;;;;;4937171;28;19911;-93
2023/08/24 01:41:50;;;;;;;;;;;;;;;;;;4933549;28;21979;-93
2023/08/24 01:44:16;;;;;;;;;;;;;;;;;;4931926;29;19914;-93
2023/08/24 01:46:41;;;;;;;;;;;;;;;;;;4947255;28;19919;-91
2023/08/24 01:49:08;;;;;;;;;;;;;;;;;;4932047;28;19945;-92
2023/08/24 01:51:34;;;;;;;;;;;;;;;;;;4945674;28;19914;-93
2023/08/24 01:54:00;;;;;;;;;;;;;;;;;;4937092;28;19924;-92
2023/08/24 01:56:25;;;;;;;;;;;;;;;;;;4934026;29;19911;-93
2023/08/24 01:58:51;;;;;;;;;;;;;;;;;;4936195;28;19930;-93
2023/08/24 02:01:17;;;;;;;;;;;;;;;;;;4937656;29;19910;-94
2023/08/24 02:03:43;;;;;;;;;;;;;;;;;;4936200;29;20298;-92
2023/08/24 02:06:09;;;;;;;;;;;;;;;;;;4933040;29;19918;-94
2023/08/24 02:08:35;;;;;;;;;;;;;;;;;;4938101;29;19911;-93
2023/08/24 02:11:01;;;;;;;;;;;;;;;;;;4936959;29;19911;-94
2023/08/24 02:13:27;;;;;;;;;;;;;;;;;;4952600;28;20434;-93
2023/08/24 02:15:53;;;;;;;;;;;;;;;;;;4926846;29;19918;-93
2023/08/24 02:18:19;;;;;;;;;;;;;;;;;;4938124;29;19934;-91
2023/08/24 02:20:45;;;;;;;;;;;;;;;;;;4938303;28;19914;-90
2023/08/24 02:23:11;;;;;;;;;;;;;;;;;;4937143;28;19910;-90
2023/08/24 02:25:40;;;;;;;;;;;;;;;;;;4936156;29;19922;-90
2023/08/24 02:28:06;;;;;;;;;;;;;;;;;;4937060;29;20387;-91
2023/08/24 02:30:32;;;;;;;;;;;;;;;;;;4927285;29;19921;-90
2023/08/24 02:32:58;;;;;;;;;;;;;;;;;;4949633;28;19907;-91
2023/08/24 02:35:24;;;;;;;;;;;;;;;;;;4941100;29;19962;-90
2023/08/24 02:37:50;;;;;;;;;;;;;;;;;;4929363;29;19921;-91
2023/08/24 02:40:16;;;;;;;;;;;;;;;;;;4940908;29;19913;-92
2023/08/24 02:42:42;;;;;;;;;;;;;;;;;;4951356;28;19911;-92
2023/08/24 02:45:09;;;;;;;;;;;;;;;;;;4934669;29;19915;-90
2023/08/24 02:47:36;;;;;;;;;;;;;;;;;;4939805;28;19910;-90
2023/08/24 02:50:03;;;;;;;;;;;;;;;;;;4936099;29;19906;-91
2023/08/24 02:52:30;;;;;;;;;;;;;;;;;;4956540;28;20282;-91
2023/08/24 02:54:56;;;;;;;;;;;;;;;;;;4938435;28;19918;-91
2023/08/24 02:57:22;;;;;;;;;;;;;;;;;;4936348;29;20018;-91
2023/08/24 02:59:48;;;;;;;;;;;;;;;;;;4953698;28;19910;-90
2023/08/24 03:02:14;;;;;;;;;;;;;;;;;;4928530;29;19910;-91
2023/08/24 03:04:40;;;;;;;;;;;;;;;;;;4950757;28;19914;-91
2023/08/24 03:07:08;;;;;;;;;;;;;;;;;;4941159;28;20047;-91
2023/08/24 03:09:33;;;;;;;;;;;;;;;;;;4954968;28;19914;-91
2023/08/24 03:11:59;;;;;;;;;;;;;;;;;;4938450;28;19918;-91
2023/08/24 03:14:25;;;;;;;;;;;;;;;;;;4936216;29;19914;-90
2023/08/24 03:16:51;;;;;;;;;;;;;;;;;;4938700;28;20382;-91
2023/08/24 03:19:18;;;;;;;;;;;;;;;;;;4938771;28;19918;-91
2023/08/24 03:21:44;;;;;;;;;;;;;;;;;;4933072;28;19917;-92
2023/08/24 03:24:10;;;;;;;;;;;;;;;;;;4949692;28;19973;-91
2023/08/24 03:26:35;;;;;;;;;;;;;;;;;;4953121;28;19921;-92
2023/08/24 03:29:02;;;;;;;;;;;;;;;;;;4936095;28;19914;-92
2023/08/24 03:31:28;;;;;;;;;;;;;;;;;;4940553;28;20005;-92
2023/08/24 03:33:55;;;;;;;;;;;;;;;;;;4933743;29;19914;-91
2023/08/24 03:36:21;;;;;;;;;;;;;;;;;;4941070;28;19934;-92
2023/08/24 03:38:47;;;;;;;;;;;;;;;;;;4940432;28;21341;-92
2023/08/24 03:41:13;;;;;;;;;;;;;;;;;;4934937;28;19925;-92
2023/08/24 03:43:39;;;;;;;;;;;;;;;;;;4950333;28;20354;-91
2023/08/24 03:46:05;;;;;;;;;;;;;;;;;;4940919;29;19969;-89
2023/08/24 03:48:31;;;;;;;;;;;;;;;;;;4950583;28;19974;-92
2023/08/24 03:50:57;;;;;;;;;;;;;;;;;;4942775;29;19918;-92
2023/08/24 03:53:23;;;;;;;;;;;;;;;;;;4937609;28;19921;-92
2023/08/24 03:55:52;;;;;;;;;;;;;;;;;;4952842;28;19990;-92
2023/08/24 03:58:18;;;;;;;;;;;;;;;;;;4953452;28;19925;-92
2023/08/24 04:00:44;;;;;;;;;;;;;;;;;;4941732;29;19910;-92
2023/08/24 04:03:10;;;;;;;;;;;;;;;;;;4935291;28;22999;-92
2023/08/24 04:05:36;;;;;;;;;;;;;;;;;;4936403;28;19917;-93
2023/08/24 04:08:02;;;;;;;;;;;;;;;;;;4948557;28;20021;-93
2023/08/24 04:10:28;;;;;;;;;;;;;;;;;;4940714;29;19914;-92
2023/08/24 04:12:55;;;;;;;;;;;;;;;;;;4949611;28;19942;-92
2023/08/24 04:15:22;;;;;;;;;;;;;;;;;;4937943;28;20350;-91
2023/08/24 04:17:48;;;;;;;;;;;;;;;;;;4933035;29;19911;-91
2023/08/24 04:20:14;;;;;;;;;;;;;;;;;;4935580;28;19921;-92
2023/08/24 04:22:40;;;;;;;;;;;;;;;;;;4932091;28;19989;-90
2023/08/24 04:25:06;;;;;;;;;;;;;;;;;;4932704;28;20176;-92
2023/08/24 04:27:38;;;;;;;;;;;;;;;;;;4939455;29;19910;-94
2023/08/24 04:30:04;;;;;;;;;;;;;;;;;;4934847;28;19911;-92
2023/08/24 04:32:30;;;;;;;;;;;;;;;;;;4938716;29;19938;-91
2023/08/24 04:34:56;;;;;;;;;;;;;;;;;;4937549;28;19962;-91
2023/08/24 04:37:21;;;;;;;;;;;;;;;;;;4938851;29;20370;-94
2023/08/24 04:39:47;;;;;;;;;;;;;;;;;;4931025;28;19957;-93
2023/08/24 04:42:13;;;;;;;;;;;;;;;;;;4930575;29;20009;-93
2023/08/24 04:44:39;;;;;;;;;;;;;;;;;;4946934;28;19916;-93
2023/08/24 04:47:05;;;;;;;;;;;;;;;;;;4930899;29;19921;-93
2023/08/24 04:49:31;;;;;;;;;;;;;;;;;;4933101;29;19910;-93
2023/08/24 04:51:57;;;;;;;;;;;;;;;;;;4929398;29;19918;-93
2023/08/24 04:54:26;;;;;;;;;;;;;;;;;;4956238;28;19918;-93
2023/08/24 04:56:52;;;;;;;;;;;;;;;;;;4931850;28;20359;-93
2023/08/24 04:59:18;;;;;;;;;;;;;;;;;;4934558;29;19958;-90
2023/08/24 05:01:44;;;;;;;;;;;;;;;;;;4934776;28;19917;-89
2023/08/24 05:04:10;;;;;;;;;;;;;;;;;;4931514;28;20366;-89
2023/08/24 05:06:42;;;;;;;;;;;;;;;;;;4934024;29;19921;-91
2023/08/24 05:09:08;;;;;;;;;;;;;;;;;;4934782;28;20065;-88
2023/08/24 05:11:34;;;;;;;;;;;;;;;;;;4935293;28;19919;-94
2023/08/24 05:14:00;;;;;;;;;;;;;;;;;;4952546;28;20419;-94
2023/08/24 05:16:33;;;;;;;;;;;;;;;;;;4935020;28;19917;-93
2023/08/24 05:18:59;;;;;;;;;;;;;;;;;;4936444;28;19966;-93
2023/08/24 05:21:25;;;;;;;;;;;;;;;;;;4936076;28;19918;-94
2023/08/24 05:23:51;;;;;;;;;;;;;;;;;;4934254;28;19949;-93
2023/08/24 05:26:22;;;;;;;;;;;;;;;;;;4937675;29;19918;-95
2023/08/24 05:28:48;;;;;;;;;;;;;;;;;;4938938;29;19910;-93
2023/08/24 05:31:14;;;;;;;;;;;;;;;;;;4933622;28;19957;-94
2023/08/24 05:33:40;;;;;;;;;;;;;;;;;;4934994;28;19945;-94
2023/08/24 05:36:06;;;;;;;;;;;;;;;;;;4939520;28;19935;-94
2023/08/24 05:38:32;;;;;;;;;;;;;;;;;;4937982;29;19911;-94
2023/08/24 05:40:58;;;;;;;;;;;;;;;;;;4936478;28;19910;-93
2023/08/24 05:43:24;;;;;;;;;;;;;;;;;;4936489;28;19910;-93
2023/08/24 05:45:50;;;;;;;;;;;;;;;;;;4934018;29;19964;-95
2023/08/24 05:48:16;;;;;;;;;;;;;;;;;;4933212;28;20034;-94
2023/08/24 05:50:42;;;;;;;;;;;;;;;;;;4930322;29;20477;-94
2023/08/24 05:53:08;;;;;;;;;;;;;;;;;;4942497;28;19918;-93
2023/08/24 05:55:35;;;;;;;;;;;;;;;;;;4935034;28;19962;-93
2023/08/24 05:58:01;;;;;;;;;;;;;;;;;;4935560;28;20073;-94
2023/08/24 06:00:27;;;;;;;;;;;;;;;;;;4926041;28;19921;-95
2023/08/24 06:02:53;;;;;;;;;;;;;;;;;;4936638;28;19914;-93
2023/08/24 06:05:19;;;;;;;;;;;;;;;;;;4934489;29;19922;-94
2023/08/24 06:07:45;;;;;;;;;;;;;;;;;;4929336;28;19914;-94
2023/08/24 06:10:11;;;;;;;;;;;;;;;;;;4949092;28;20373;-92
2023/08/24 06:12:37;;;;;;;;;;;;;;;;;;4934360;29;19918;-93
2023/08/24 06:15:04;;;;;;;;;;;;;;;;;;4932692;28;20598;-94
2023/08/24 06:17:30;;;;;;;;;;;;;;;;;;4935762;28;19922;-92
2023/08/24 06:19:56;;;;;;;;;;;;;;;;;;4937258;28;19918;-93
2023/08/24 06:22:22;;;;;;;;;;;;;;;;;;4933231;28;19966;-94
2023/08/24 06:24:49;;;;;;;;;;;;;;;;;;4937317;29;19921;-93
2023/08/24 06:27:15;;;;;;;;;;;;;;;;;;4934905;28;19957;-94
2023/08/24 06:29:41;;;;;;;;;;;;;;;;;;4930523;28;20343;-93
2023/08/24 06:32:07;;;;;;;;;;;;;;;;;;4936056;29;20359;-92
2023/08/24 06:34:33;;;;;;;;;;;;;;;;;;4936383;29;20119;-92
2023/08/24 06:36:59;;;;;;;;;;;;;;;;;;4931296;28;20338;-94
2023/08/24 06:39:25;;;;;;;;;;;;;;;;;;4935984;28;19915;-94
2023/08/24 06:41:51;;;;;;;;;;;;;;;;;;4930769;29;19964;-94
2023/08/24 06:44:17;;;;;;;;;;;;;;;;;;4934441;29;19914;-93
2023/08/24 06:46:43;;;;;;;;;;;;;;;;;;4937912;28;20397;-93
2023/08/24 06:49:09;;;;;;;;;;;;;;;;;;4932786;28;19998;-93
2023/08/24 06:51:41;;;;;;;;;;;;;;;;;;4933319;29;20398;-95
2023/08/24 06:54:07;;;;;;;;;;;;;;;;;;4932160;28;19910;-93
2023/08/24 06:56:33;;;;;;;;;;;;;;;;;;4940397;28;19958;-91
2023/08/24 07:01:47;;;;;;;;;;;;;;;;;;4922804;29;20398;-90
2023/08/24 07:04:13;;;;;;;;;;;;;;;;;;4913226;29;19919;-91
2023/08/24 07:06:39;;;;;;;;;;;;;;;;;;4921222;29;19966;-90
2023/08/24 07:09:07;;;;;;;;;;;;;;;;;;4911557;29;19941;-91
2023/08/24 07:11:33;;;;;;;;;;;;;;;;;;4915088;29;19922;-91
2023/08/24 07:14:08;;;;;;;;;;;;;;;;;;4933419;29;19910;-90
2023/08/24 07:16:34;;;;;;;;;;;;;;;;;;4930988;29;19954;-90
2023/08/24 07:19:00;;;;;;;;;;;;;;;;;;4927425;29;19911;-91
2023/08/24 07:21:26;;;;;;;;;;;;;;;;;;4918825;29;19961;-91
2023/08/24 07:23:52;;;;;;;;;;;;;;;;;;4911645;29;19950;-91
2023/08/24 07:26:18;;;;;;;;;;;;;;;;;;4912004;29;20426;-91
2023/08/24 07:28:47;;;;;;;;;;;;;;;;;;4913487;29;20013;-90
2023/08/24 07:31:13;;;;;;;;;;;;;;;;;;4913514;29;19939;-91
2023/08/24 07:33:39;;;;;;;;;;;;;;;;;;4929615;29;19911;-91
2023/08/24 07:36:05;;;;;;;;;;;;;;;;;;4915847;29;20430;-92
2023/08/24 07:38:31;;;;;;;;;;;;;;;;;;4914760;29;19911;-91
2023/08/24 07:40:57;;;;;;;;;;;;;;;;;;4917834;29;19914;-92
2023/08/24 07:43:22;;;;;;;;;;;;;;;;;;4914418;29;19955;-91
2023/08/24 07:45:48;;;;;;;;;;;;;;;;;;4914954;29;19934;-92
2023/08/24 07:48:17;;;;;;;;;;;;;;;;;;4914203;29;20001;-91
2023/08/24 07:50:43;;;;;;;;;;;;;;;;;;4933848;29;19938;-91
2023/08/24 07:53:09;;;;;;;;;;;;;;;;;;4914206;29;19918;-92
2023/08/24 07:55:38;;;;;;;;;;;;;;;;;;4940360;28;20449;-91
2023/08/24 07:58:04;;;;;;;;;;;;;;;;;;4919264;29;20479;-92
2023/08/24 08:00:30;;;;;;;;;;;;;;;;;;4920410;29;19954;-91
2023/08/24 08:02:56;;;;;;;;;;;;;;;;;;4920927;29;19914;-92
2023/08/24 08:05:22;;;;;;;;;;;;;;;;;;4920577;29;19965;-91
2023/08/24 08:07:48;;;;;;;;;;;;;;;;;;4922190;29;19914;-92
2023/08/24 08:10:17;;;;;;;;;;;;;;;;;;4915871;29;19918;-89
2023/08/24 08:12:43;;;;;;;;;;;;;;;;;;4919298;29;20036;-90
2023/08/24 08:15:09;;;;;;;;;;;;;;;;;;4917961;29;19990;-91
2023/08/24 08:17:35;;;;;;;;;;;;;;;;;;4915863;29;20433;-90
2023/08/24 08:20:02;;;;;;;;;;;;;;;;;;4919407;29;19917;-90
2023/08/24 08:22:28;;;;;;;;;;;;;;;;;;4917638;29;19921;-91
2023/08/24 08:24:56;;;;;;;;;;;;;;;;;;4933189;29;19939;-91
2023/08/24 08:27:22;;;;;;;;;;;;;;;;;;4918378;29;19911;-91
2023/08/24 08:29:48;;;;;;;;;;;;;;;;;;4928449;29;19956;-91
2023/08/24 08:32:14;;;;;;;;;;;;;;;;;;4920941;29;19937;-91
2023/08/24 08:34:40;;;;;;;;;;;;;;;;;;4927891;29;20513;-91
2023/08/24 08:37:06;;;;;;;;;;;;;;;;;;4916490;29;19906;-91
2023/08/24 08:39:32;;;;;;;;;;;;;;;;;;4916475;29;19942;-91
2023/08/24 08:41:58;;;;;;;;;;;;;;;;;;4912489;29;19910;-91
2023/08/24 08:44:24;;;;;;;;;;;;;;;;;;4919333;29;19926;-91
2023/08/24 08:46:50;;;;;;;;;;;;;;;;;;4915725;29;19911;-90
2023/08/24 08:49:16;;;;;;;;;;;;;;;;;;4914391;29;20355;-91
2023/08/24 08:51:42;;;;;;;;;;;;;;;;;;4930742;29;19982;-92
2023/08/24 08:54:08;;;;;;;;;;;;;;;;;;4912472;29;21991;-91
2023/08/24 08:56:34;;;;;;;;;;;;;;;;;;4940021;28;20338;-92
2023/08/24 08:59:00;;;;;;;;;;;;;;;;;;4936617;29;19923;-92
2023/08/24 09:01:26;;;;;;;;;;;;;;;;;;4936758;28;19986;-92
2023/08/24 09:03:53;;;;;;;;;;;;;;;;;;4933601;29;20046;-92
2023/08/24 09:06:19;;;;;;;;;;;;;;;;;;4934816;28;19953;-91
2023/08/24 09:08:45;;;;;;;;;;;;;;;;;;4935991;29;19918;-91
2023/08/24 09:11:11;;;;;;;;;;;;;;;;;;4937012;28;19914;-91
2023/08/24 09:13:37;;;;;;;;;;;;;;;;;;4935586;29;20164;-90
2023/08/24 09:16:03;;;;;;;;;;;;;;;;;;4929552;28;19930;-91
2023/08/24 09:18:29;;;;;;;;;;;;;;;;;;4934828;29;19917;-90
2023/08/24 09:20:55;;;;;;;;;;;;;;;;;;4933515;29;19910;-91
2023/08/24 09:23:21;;;;;;;;;;;;;;;;;;4935619;28;19914;-90
2023/08/24 09:25:47;;;;;;;;;;;;;;;;;;4931484;29;20000;-90
2023/08/24 09:28:13;;;;;;;;;;;;;;;;;;4934979;28;19957;-90
2023/08/24 09:30:39;;;;;;;;;;;;;;;;;;4949998;28;19922;-90
2023/08/24 09:33:05;;;;;;;;;;;;;;;;;;4947262;29;19917;-90
2023/08/24 09:35:31;;;;;;;;;;;;;;;;;;4928687;29;20323;-90
2023/08/24 09:37:57;;;;;;;;;;;;;;;;;;4929254;28;19968;-91
2023/08/24 09:40:23;;;;;;;;;;;;;;;;;;4946368;28;19919;-90
2023/08/24 09:42:50;;;;;;;;;;;;;;;;;;4930471;28;20293;-90
2023/08/24 09:45:16;;;;;;;;;;;;;;;;;;4936695;29;19958;-90
2023/08/24 09:47:42;;;;;;;;;;;;;;;;;;4937499;28;19910;-91
2023/08/24 09:50:08;;;;;;;;;;;;;;;;;;4935035;29;20286;-90
2023/08/24 09:52:34;;;;;;;;;;;;;;;;;;4940173;29;19918;-93
2023/08/24 09:55:00;;;;;;;;;;;;;;;;;;4934766;29;19938;-90
2023/08/24 09:57:26;;;;;;;;;;;;;;;;;;4939488;28;20232;-91
2023/08/24 09:59:52;;;;;;;;;;;;;;;;;;4926479;29;19914;-91
2023/08/24 10:02:21;;;;;;;;;;;;;;;;;;4938323;28;19935;-91
2023/08/24 10:04:48;;;;;;;;;;;;;;;;;;4933704;28;19918;-91
2023/08/24 10:07:15;;;;;;;;;;;;;;;;;;4935642;29;19910;-92
2023/08/24 10:09:42;;;;;;;;;;;;;;;;;;4949526;28;20444;-92
2023/08/24 10:12:08;;;;;;;;;;;;;;;;;;4938288;29;20009;-91
2023/08/24 10:14:34;;;;;;;;;;;;;;;;;;4935402;29;19949;-91
2023/08/24 10:16:59;;;;;;;;;;;;;;;;;;4935555;29;19921;-92
2023/08/24 10:19:29;;;;;;;;;;;;;;;;;;4931974;29;19910;-91
2023/08/24 10:21:57;;;;;;;;;;;;;;;;;;4933511;29;19938;-91
2023/08/24 10:24:23;;;;;;;;;;;;;;;;;;4935400;29;19961;-92
2023/08/24 10:26:48;;;;;;;;;;;;;;;;;;4926462;28;19914;-92
2023/08/24 10:29:14;;;;;;;;;;;;;;;;;;4935904;29;19973;-91
2023/08/24 10:31:40;;;;;;;;;;;;;;;;;;4937969;28;19914;-90
2023/08/24 10:34:06;;;;;;;;;;;;;;;;;;4933612;29;19914;-91
2023/08/24 10:36:33;;;;;;;;;;;;;;;;;;4933074;28;19922;-91
2023/08/24 10:38:59;;;;;;;;;;;;;;;;;;4934160;29;19910;-91
2023/08/24 10:41:25;;;;;;;;;;;;;;;;;;4937192;29;19925;-90
2023/08/24 10:43:51;;;;;;;;;;;;;;;;;;4936242;29;20377;-90
2023/08/24 10:46:17;;;;;;;;;;;;;;;;;;4935400;29;19917;-89
2023/08/24 10:48:46;;;;;;;;;;;;;;;;;;4938290;29;19911;-91
2023/08/24 10:51:19;;;;;;;;;;;;;;;;;;4937618;29;19910;-91
2023/08/24 10:53:45;;;;;;;;;;;;;;;;;;4951282;28;19946;-91
2023/08/24 10:56:14;;;;;;;;;;;;;;;;;;4935395;28;19976;-91
2023/08/24 10:58:40;;;;;;;;;;;;;;;;;;4935076;28;19954;-91
2023/08/24 11:01:06;;;;;;;;;;;;;;;;;;4938994;29;19914;-91
2023/08/24 11:03:32;;;;;;;;;;;;;;;;;;4934386;28;19917;-91
2023/08/24 11:05:58;;;;;;;;;;;;;;;;;;4937462;29;20029;-91
2023/08/24 11:08:24;;;;;;;;;;;;;;;;;;4949626;28;20282;-91
2023/08/24 11:10:50;;;;;;;;;;;;;;;;;;4936854;28;19915;-92
2023/08/24 11:13:16;;;;;;;;;;;;;;;;;;4951277;28;19978;-91
2023/08/24 11:15:42;;;;;;;;;;;;;;;;;;4933004;28;20020;-91
2023/08/24 11:18:11;;;;;;;;;;;;;;;;;;4935709;28;19958;-91
2023/08/24 11:20:38;;;;;;;;;;;;;;;;;;4938932;29;19937;-91
2023/08/24 11:23:03;;;;;;;;;;;;;;;;;;4941080;29;19914;-92
2023/08/24 11:25:29;;;;;;;;;;;;;;;;;;4939230;28;19922;-91
2023/08/24 11:27:55;;;;;;;;;;;;;;;;;;4937381;29;19926;-90
2023/08/24 11:30:21;;;;;;;;;;;;;;;;;;4940950;28;20268;-91
2023/08/24 11:32:51;;;;;;;;;;;;;;;;;;4933510;29;20501;-91
2023/08/24 11:35:17;;;;;;;;;;;;;;;;;;4932026;29;19951;-91
2023/08/24 11:37:43;;;;;;;;;;;;;;;;;;4933342;29;19915;-91
2023/08/24 11:40:10;;;;;;;;;;;;;;;;;;4933710;28;19970;-91
2023/08/24 11:42:51;;;;;;;;;;;;;;;;;;4938015;28;19911;-91
2023/08/24 11:45:17;;;;;;;;;;;;;;;;;;4953107;28;20024;-91
2023/08/24 11:47:43;;;;;;;;;;;;;;;;;;4935961;28;20401;-93
2023/08/24 11:50:09;;;;;;;;;;;;;;;;;;4931062;29;19961;-93
2023/08/24 11:52:36;;;;;;;;;;;;;;;;;;4932417;29;19990;-94
2023/08/24 11:55:02;;;;;;;;;;;;;;;;;;4933310;28;20340;-94
2023/08/24 11:57:28;;;;;;;;;;;;;;;;;;4937271;28;20305;-94
2023/08/24 11:59:54;;;;;;;;;;;;;;;;;;4929584;28;19966;-94
2023/08/24 12:02:20;;;;;;;;;;;;;;;;;;4932806;28;19964;-94
2023/08/24 12:04:46;;;;;;;;;;;;;;;;;;4932712;29;19921;-95
2023/08/24 12:07:13;;;;;;;;;;;;;;;;;;4948733;28;20087;-93
2023/08/24 12:09:39;;;;;;;;;;;;;;;;;;4938804;29;20031;-92
2023/08/24 12:12:05;;;;;;;;;;;;;;;;;;4929095;28;19930;-93
2023/08/24 12:14:31;;;;;;;;;;;;;;;;;;4939298;29;19923;-94
2023/08/24 12:16:57;;;;;;;;;;;;;;;;;;4950782;28;19925;-91
2023/08/24 12:19:23;;;;;;;;;;;;;;;;;;4939071;29;20010;-91
2023/08/24 12:21:49;;;;;;;;;;;;;;;;;;4932594;28;19917;-94
2023/08/24 12:24:15;;;;;;;;;;;;;;;;;;4940802;28;19914;-93
2023/08/24 12:26:44;;;;;;;;;;;;;;;;;;4935006;29;19916;-93
2023/08/24 12:29:10;;;;;;;;;;;;;;;;;;4938213;28;19910;-91
2023/08/24 12:31:36;;;;;;;;;;;;;;;;;;4937544;28;20294;-92
2023/08/24 12:34:03;;;;;;;;;;;;;;;;;;4936706;28;19924;-93
2023/08/24 12:36:29;;;;;;;;;;;;;;;;;;4932342;28;19930;-94
2023/08/24 12:38:55;;;;;;;;;;;;;;;;;;4930698;28;19915;-92
2023/08/24 12:41:21;;;;;;;;;;;;;;;;;;4929064;29;19915;-94
2023/08/24 12:43:46;;;;;;;;;;;;;;;;;;4931857;29;19922;-93
2023/08/24 12:46:12;;;;;;;;;;;;;;;;;;4936637;28;19915;-94
2023/08/24 12:48:39;;;;;;;;;;;;;;;;;;4933914;29;20012;-92
2023/08/24 12:51:05;;;;;;;;;;;;;;;;;;4936628;29;20550;-95
2023/08/24 12:53:31;;;;;;;;;;;;;;;;;;4933452;29;19914;-93
2023/08/24 12:55:57;;;;;;;;;;;;;;;;;;4948364;28;20459;-95
2023/08/24 12:58:23;;;;;;;;;;;;;;;;;;4935680;28;19914;-91
2023/08/24 13:00:49;;;;;;;;;;;;;;;;;;4945290;28;19915;-91
2023/08/24 13:03:15;;;;;;;;;;;;;;;;;;4932191;29;20019;-91
2023/08/24 13:05:41;;;;;;;;;;;;;;;;;;4929900;29;19914;-91
2023/08/24 13:08:07;;;;;;;;;;;;;;;;;;4947259;28;19918;-91
2023/08/24 13:10:34;;;;;;;;;;;;;;;;;;4935274;29;19921;-92
2023/08/24 13:13:03;;;;;;;;;;;;;;;;;;4947135;28;19911;-91
2023/08/24 13:15:29;;;;;;;;;;;;;;;;;;4932513;29;19941;-90
2023/08/24 13:17:56;;;;;;;;;;;;;;;;;;4936473;28;20257;-91
2023/08/24 13:20:22;;;;;;;;;;;;;;;;;;4927558;28;19917;-90
2023/08/24 13:22:48;;;;;;;;;;;;;;;;;;4931527;28;19910;-91
2023/08/24 13:25:14;;;;;;;;;;;;;;;;;;4950455;28;21046;-91
2023/08/24 13:27:39;;;;;;;;;;;;;;;;;;4935350;29;20303;-91
2023/08/24 13:30:05;;;;;;;;;;;;;;;;;;4948756;28;19914;-91
2023/08/24 13:32:32;;;;;;;;;;;;;;;;;;4934034;29;19917;-91
2023/08/24 13:34:58;;;;;;;;;;;;;;;;;;4933646;29;19938;-91
2023/08/24 13:37:39;;;;;;;;;;;;;;;;;;4932006;29;20355;-92
2023/08/24 13:40:07;;;;;;;;;;;;;;;;;;4935180;28;19961;-92
2023/08/24 13:42:33;;;;;;;;;;;;;;;;;;4928009;28;19915;-92
2023/08/24 13:44:59;;;;;;;;;;;;;;;;;;4932162;29;19925;-92
2023/08/24 13:47:25;;;;;;;;;;;;;;;;;;4932569;28;19942;-92
2023/08/24 13:49:51;;;;;;;;;;;;;;;;;;4930564;28;19914;-91
2023/08/24 13:52:18;;;;;;;;;;;;;;;;;;4936202;29;19917;-92
2023/08/24 13:54:44;;;;;;;;;;;;;;;;;;4933453;29;19922;-92
2023/08/24 13:57:10;;;;;;;;;;;;;;;;;;4934091;28;22283;-91
2023/08/24 13:59:36;;;;;;;;;;;;;;;;;;4915130;29;20001;-92
2023/08/24 14:02:03;;;;;;;;;;;;;;;;;;4915311;29;19910;-91
2023/08/24 14:04:32;;;;;;;;;;;;;;;;;;4915648;29;19950;-91
2023/08/24 14:06:58;;;;;;;;;;;;;;;;;;4918322;29;19946;-91
2023/08/24 14:09:25;;;;;;;;;;;;;;;;;;4915677;29;19918;-91
2023/08/24 14:11:51;;;;;;;;;;;;;;;;;;4932554;29;20259;-89
2023/08/24 14:14:17;;;;;;;;;;;;;;;;;;4912495;29;19969;-90
2023/08/24 14:16:43;;;;;;;;;;;;;;;;;;4920191;29;19964;-89
2023/08/24 14:19:09;;;;;;;;;;;;;;;;;;4918885;29;19922;-90
2023/08/24 14:21:35;;;;;;;;;;;;;;;;;;4921438;29;19919;-89
2023/08/24 14:24:01;;;;;;;;;;;;;;;;;;4917437;29;19914;-90
2023/08/24 14:26:28;;;;;;;;;;;;;;;;;;4917484;29;19922;-91
2023/08/24 14:29:02;;;;;;;;;;;;;;;;;;4920054;29;19911;-90
2023/08/24 14:31:28;;;;;;;;;;;;;;;;;;4920968;29;19937;-90
2023/08/24 14:33:54;;;;;;;;;;;;;;;;;;4919259;29;20196;-90
2023/08/24 14:36:20;;;;;;;;;;;;;;;;;;4922029;29;19925;-91
2023/08/24 14:38:46;;;;;;;;;;;;;;;;;;4912766;29;19915;-91
2023/08/24 14:41:13;;;;;;;;;;;;;;;;;;4911127;29;19917;-91
2023/08/24 14:43:38;;;;;;;;;;;;;;;;;;4914613;29;19974;-90
2023/08/24 14:46:04;;;;;;;;;;;;;;;;;;4918730;29;19918;-91
2023/08/24 14:48:30;;;;;;;;;;;;;;;;;;4922655;29;19915;-90
2023/08/24 14:50:56;;;;;;;;;;;;;;;;;;4913273;29;20641;-91
2023/08/24 14:53:22;;;;;;;;;;;;;;;;;;4911215;29;20004;-91
2023/08/24 14:55:49;;;;;;;;;;;;;;;;;;4919174;29;19930;-91
2023/08/24 14:58:15;;;;;;;;;;;;;;;;;;4942419;28;19918;-92
2023/08/24 15:00:40;;;;;;;;;;;;;;;;;;4923872;29;19925;-92
2023/08/24 15:03:06;;;;;;;;;;;;;;;;;;4922973;29;19919;-90
2023/08/24 15:05:36;;;;;;;;;;;;;;;;;;4920108;29;19988;-89
2023/08/24 15:08:02;;;;;;;;;;;;;;;;;;4929308;29;19917;-90
2023/08/24 15:10:28;;;;;;;;;;;;;;;;;;4918939;29;19922;-91
2023/08/24 15:12:54;;;;;;;;;;;;;;;;;;4920764;29;19919;-90
2023/08/24 15:15:20;;;;;;;;;;;;;;;;;;4933362;29;19927;-90
2023/08/24 15:17:47;;;;;;;;;;;;;;;;;;4921478;29;19921;-92
2023/08/24 15:20:13;;;;;;;;;;;;;;;;;;4921323;29;19910;-92
2023/08/24 15:22:39;;;;;;;;;;;;;;;;;;4921181;29;19921;-91
2023/08/24 15:25:08;;;;;;;;;;;;;;;;;;4921594;29;19910;-92
2023/08/24 15:27:34;;;;;;;;;;;;;;;;;;4925110;29;19922;-91
2023/08/24 15:30:01;;;;;;;;;;;;;;;;;;4921524;29;19911;-92
2023/08/24 15:32:26;;;;;;;;;;;;;;;;;;4920617;29;19922;-92
2023/08/24 15:34:54;;;;;;;;;;;;;;;;;;4921613;29;19911;-90
2023/08/24 15:37:19;;;;;;;;;;;;;;;;;;4918076;29;20367;-90
2023/08/24 15:39:45;;;;;;;;;;;;;;;;;;4920304;29;19926;-91
2023/08/24 15:42:11;;;;;;;;;;;;;;;;;;4922998;29;19915;-92
2023/08/24 15:44:37;;;;;;;;;;;;;;;;;;4919409;29;20020;-91
2023/08/24 15:47:03;;;;;;;;;;;;;;;;;;4922478;29;20380;-92
2023/08/24 15:49:29;;;;;;;;;;;;;;;;;;4911820;29;19982;-91
2023/08/24 15:51:55;;;;;;;;;;;;;;;;;;4918849;29;19950;-91
2023/08/24 15:54:24;;;;;;;;;;;;;;;;;;4918703;29;19939;-92
2023/08/24 15:56:50;;;;;;;;;;;;;;;;;;4925650;29;19915;-91
2023/08/24 15:59:16;;;;;;;;;;;;;;;;;;4929587;28;19922;-92
2023/08/24 16:01:42;;;;;;;;;;;;;;;;;;4949657;28;20363;-92
2023/08/24 16:04:08;;;;;;;;;;;;;;;;;;4934964;29;19914;-91
2023/08/24 16:06:34;;;;;;;;;;;;;;;;;;4938327;29;19910;-92
2023/08/24 16:09:03;;;;;;;;;;;;;;;;;;4931190;28;19960;-92
2023/08/24 16:11:29;;;;;;;;;;;;;;;;;;4934926;28;19922;-92
2023/08/24 16:13:57;;;;;;;;;;;;;;;;;;4925228;28;20007;-89
2023/08/24 16:16:27;;;;;;;;;;;;;;;;;;4935490;28;19927;-92
2023/08/24 16:19:02;;;;;;;;;;;;;;;;;;4938487;28;19925;-91
2023/08/24 16:21:31;;;;;;;;;;;;;;;;;;4938911;29;19910;-91
2023/08/24 16:24:04;;;;;;;;;;;;;;;;;;4933412;29;20135;-91
2023/08/24 16:26:33;;;;;;;;;;;;;;;;;;4940932;28;20378;-95
2023/08/24 16:28:59;;;;;;;;;;;;;;;;;;4949825;28;19914;-94
2023/08/24 16:31:28;;;;;;;;;;;;;;;;;;4937398;28;19921;-93
2023/08/24 16:34:00;;;;;;;;;;;;;;;;;;4941196;29;19930;-93
2023/08/24 16:36:29;;;;;;;;;;;;;;;;;;4945747;28;19918;-95
2023/08/24 16:38:55;;;;;;;;;;;;;;;;;;4939831;29;19925;-94
2023/08/24 16:41:21;;;;;;;;;;;;;;;;;;4940494;28;19911;-93
2023/08/24 16:43:51;;;;;;;;;;;;;;;;;;4938557;29;19922;-94